createdAt,value
2018-08-09T00:01:14.191Z,8.70
2018-08-09T00:03:42.159Z,9.47
2018-08-09T00:06:10.161Z,8.83
2018-08-09T00:08:38.116Z,9.20
2018-08-09T00:11:06.059Z,8.93
2018-08-09T00:13:34.179Z,10.37
2018-08-09T00:16:02.151Z,9.97
2018-08-09T00:18:30.087Z,9.43
2018-08-09T00:20:58.126Z,9.77
2018-08-09T00:23:26.123Z,11.50
2018-08-09T00:25:54.116Z,11.27
2018-08-09T00:28:22.091Z,11.13
2018-08-09T00:30:50.785Z,11.70
2018-08-09T00:33:18.771Z,13.23
2018-08-09T00:35:46.727Z,12.33
2018-08-09T00:38:14.679Z,11.03
2018-08-09T00:40:42.671Z,10.97
2018-08-09T00:43:10.775Z,12.07
2018-08-09T00:45:38.712Z,13.00
2018-08-09T00:48:06.667Z,10.70
2018-08-09T00:50:34.627Z,11.73
2018-08-09T00:53:02.700Z,13.23
2018-08-09T00:55:30.687Z,12.27
2018-08-09T00:57:58.692Z,11.67
2018-08-09T01:00:26.628Z,13.27
2018-08-09T01:02:54.588Z,11.87
2018-08-09T01:05:22.560Z,11.73
2018-08-09T01:07:50.860Z,12.20
2018-08-09T01:10:18.815Z,14.40
2018-08-09T01:12:46.824Z,14.00
2018-08-09T01:15:14.832Z,14.03
2018-08-09T01:17:42.796Z,13.20
2018-08-09T01:20:10.761Z,13.50
2018-08-09T01:22:38.751Z,13.30
2018-08-09T01:25:06.719Z,12.83
2018-08-09T01:27:34.679Z,13.80
2018-08-09T01:30:02.680Z,17.63
2018-08-09T01:32:30.632Z,13.37
2018-08-09T01:34:58.580Z,13.30
2018-08-09T01:37:26.528Z,13.70
2018-08-09T01:39:54.492Z,11.13
2018-08-09T01:42:28.253Z,11.53
2018-08-09T01:44:56.212Z,10.87
2018-08-09T01:47:24.161Z,12.23
2018-08-09T01:49:52.124Z,12.17
2018-08-09T01:52:20.144Z,12.87
2018-08-09T01:54:48.113Z,12.50
2018-08-09T01:57:16.092Z,10.73
2018-08-09T01:59:44.045Z,10.23
2018-08-09T02:02:12.025Z,14.23
2018-08-09T02:04:40.000Z,10.47
2018-08-09T02:07:07.936Z,11.43
2018-08-09T02:09:35.881Z,10.50
2018-08-09T02:12:04.649Z,11.87
2018-08-09T02:14:32.881Z,11.27
2018-08-09T02:17:01.130Z,12.43
2018-08-09T02:19:29.189Z,12.07
2018-08-09T02:21:57.206Z,11.43
2018-08-09T02:24:25.189Z,11.53
2018-08-09T02:26:53.160Z,13.07
2018-08-09T02:29:21.337Z,13.33
2018-08-09T02:31:49.305Z,13.27
2018-08-09T02:34:17.306Z,14.70
2018-08-09T02:36:45.253Z,14.30
2018-08-09T02:39:13.265Z,14.07
2018-08-09T02:41:41.249Z,14.53
2018-08-09T02:44:09.230Z,15.30
2018-08-09T02:46:37.366Z,15.93
2018-08-09T02:49:05.282Z,14.97
2018-08-09T02:51:33.273Z,17.20
2018-08-09T02:54:01.268Z,15.63
2018-08-09T02:56:29.266Z,16.50
2018-08-09T02:58:57.610Z,16.03
2018-08-09T03:01:25.584Z,16.93
2018-08-09T03:03:53.543Z,16.67
2018-08-09T03:06:21.519Z,17.00
2018-08-09T03:08:49.483Z,16.93
2018-08-09T03:11:17.494Z,17.27
2018-08-09T03:13:45.466Z,18.10
2018-08-09T03:16:13.469Z,17.07
2018-08-09T03:18:41.434Z,17.90
2018-08-09T03:21:09.406Z,18.50
2018-08-09T03:23:37.393Z,15.30
2018-08-09T03:26:05.458Z,16.73
2018-08-09T03:28:33.701Z,16.13
2018-08-09T03:31:02.499Z,16.53
2018-08-09T03:33:30.505Z,15.33
2018-08-09T03:35:58.485Z,15.10
2018-08-09T03:38:26.745Z,14.37
2018-08-09T03:40:54.746Z,13.93
2018-08-09T03:43:22.746Z,15.40
2018-08-09T03:45:51.446Z,14.87
2018-08-09T03:48:19.418Z,15.73
2018-08-09T03:50:47.568Z,15.80
2018-08-09T03:53:15.505Z,15.50
2018-08-09T03:55:43.894Z,14.63
2018-08-09T03:58:11.884Z,16.53
2018-08-09T04:00:39.859Z,17.80
2018-08-09T04:03:07.885Z,15.27
2018-08-09T04:05:35.907Z,17.30
2018-08-09T04:08:03.998Z,17.30
2018-08-09T04:10:31.983Z,16.40
2018-08-09T04:12:59.998Z,16.27
2018-08-09T04:15:28.015Z,17.20
2018-08-09T04:17:56.009Z,19.60
2018-08-09T04:20:24.022Z,17.60
2018-08-09T04:22:52.418Z,33.03
2018-08-09T04:25:20.494Z,20.37
2018-08-09T04:27:48.472Z,18.00
2018-08-09T04:30:16.435Z,17.87
2018-08-09T04:32:44.439Z,17.70
2018-08-09T04:35:12.414Z,18.27
2018-08-09T04:37:40.373Z,18.20
2018-08-09T04:40:08.375Z,22.50
2018-08-09T04:42:36.543Z,20.10
2018-08-09T04:45:04.922Z,18.10
2018-08-09T04:47:32.891Z,17.97
2018-08-09T04:50:00.830Z,19.27
2018-08-09T04:52:28.790Z,18.37
2018-08-09T04:54:56.743Z,18.50
2018-08-09T04:57:24.702Z,17.13
2018-08-09T04:59:52.690Z,18.03
2018-08-09T05:02:20.646Z,20.40
2018-08-09T05:04:48.646Z,18.97
2018-08-09T05:07:16.607Z,18.43
2018-08-09T05:09:44.627Z,22.40
2018-08-09T05:12:12.580Z,22.47
2018-08-09T05:14:40.532Z,23.33
2018-08-09T05:17:08.544Z,19.83
2018-08-09T05:19:36.769Z,19.97
2018-08-09T05:22:04.992Z,17.10
2018-08-09T05:24:33.257Z,19.25
2018-08-09T05:27:01.491Z,20.50
2018-08-09T05:29:29.687Z,19.53
2018-08-09T05:31:57.900Z,18.97
2018-08-09T05:34:26.441Z,21.93
2018-08-09T05:36:54.656Z,19.70
2018-08-09T05:39:22.888Z,20.43
2018-08-09T05:41:51.117Z,19.40
2018-08-09T05:44:19.333Z,20.60
2018-08-09T05:46:47.554Z,23.00
2018-08-09T05:49:15.809Z,21.17
2018-08-09T05:51:44.013Z,19.37
2018-08-09T05:54:12.222Z,21.43
2018-08-09T05:56:40.462Z,19.53
2018-08-09T05:59:08.746Z,20.13
2018-08-09T06:01:36.954Z,21.53
2018-08-09T06:04:05.193Z,21.27
2018-08-09T06:06:33.390Z,23.00
2018-08-09T06:09:01.615Z,22.80
2018-08-09T06:11:29.838Z,22.60
2018-08-09T06:13:58.058Z,43.83
2018-08-09T06:16:26.025Z,20.83
2018-08-09T06:18:54.428Z,20.57
2018-08-09T06:21:22.545Z,21.43
2018-08-09T06:23:50.865Z,22.97
2018-08-09T06:26:19.207Z,21.80
2018-08-09T06:28:47.652Z,26.00
2018-08-09T06:31:15.818Z,20.30
2018-08-09T06:33:44.118Z,20.90
2018-08-09T06:36:12.397Z,21.10
2018-08-09T06:38:40.649Z,21.20
2018-08-09T06:41:08.881Z,21.53
2018-08-09T06:43:37.165Z,21.77
2018-08-09T06:46:05.566Z,20.70
2018-08-09T06:48:33.786Z,21.47
2018-08-09T06:51:02.005Z,18.63
2018-08-09T06:53:30.226Z,21.77
2018-08-09T06:55:58.493Z,21.97
2018-08-09T06:58:27.166Z,21.67
2018-08-09T07:00:55.406Z,22.93
2018-08-09T07:03:23.642Z,21.27
2018-08-09T07:05:51.850Z,22.23
2018-08-09T07:08:20.170Z,21.13
2018-08-09T07:10:48.462Z,27.33
2018-08-09T07:13:16.844Z,22.10
2018-08-09T07:15:45.054Z,23.27
2018-08-09T07:18:13.345Z,28.93
2018-08-09T07:20:41.309Z,21.90
2018-08-09T07:23:09.358Z,22.67
2018-08-09T07:25:37.361Z,20.43
2018-08-09T07:28:05.858Z,21.40
2018-08-09T07:30:33.957Z,23.67
2018-08-09T07:33:02.081Z,20.87
2018-08-09T07:35:30.205Z,20.83
2018-08-09T07:37:58.338Z,21.73
2018-08-09T07:40:26.378Z,20.67
2018-08-09T07:42:54.351Z,20.83
2018-08-09T07:45:22.334Z,21.10
2018-08-09T07:47:50.310Z,20.73
2018-08-09T07:50:18.293Z,19.13
2018-08-09T07:52:46.309Z,21.20
2018-08-09T07:55:14.263Z,20.23
2018-08-09T07:57:42.298Z,21.80
2018-08-09T08:00:11.794Z,20.40
2018-08-09T08:02:39.990Z,24.83
2018-08-09T08:05:08.210Z,23.10
2018-08-09T08:07:36.382Z,24.33
2018-08-09T08:10:05.178Z,23.23
2018-08-09T08:12:33.127Z,20.53
2018-08-09T08:15:01.199Z,20.67
2018-08-09T08:17:29.153Z,18.23
2018-08-09T08:19:57.102Z,18.90
2018-08-09T08:22:25.109Z,16.27
2018-08-09T08:24:53.955Z,15.00
2018-08-09T08:27:21.907Z,15.97
2018-08-09T08:29:49.899Z,14.00
2018-08-09T08:32:17.896Z,14.70
2018-08-09T08:34:45.864Z,15.40
2018-08-09T08:37:13.892Z,18.43
2018-08-09T08:39:42.191Z,15.90
2018-08-09T08:42:10.503Z,13.67
2018-08-09T08:44:38.795Z,18.73
2018-08-09T08:47:07.040Z,11.13
2018-08-09T08:49:34.972Z,11.10
2018-08-09T08:52:02.935Z,12.20
2018-08-09T08:54:30.884Z,17.57
2018-08-09T08:57:05.416Z,17.80
2018-08-09T08:59:33.404Z,13.20
2018-08-09T09:02:01.420Z,11.47
2018-08-09T09:04:29.518Z,12.67
2018-08-09T09:06:57.470Z,10.27
2018-08-09T09:09:25.510Z,11.57
2018-08-09T09:11:54.189Z,8.43
2018-08-09T09:14:22.213Z,9.00
2018-08-09T09:16:50.154Z,9.03
2018-08-09T09:19:18.123Z,14.67
2018-08-09T09:21:46.125Z,10.27
2018-08-09T09:24:14.085Z,11.40
2018-08-09T09:26:42.067Z,9.53
2018-08-09T09:29:10.017Z,8.67
2018-08-09T09:31:38.285Z,9.60
2018-08-09T09:34:06.537Z,21.80
2018-08-09T09:36:34.820Z,28.97
2018-08-09T09:39:03.093Z,16.10
2018-08-09T09:41:31.424Z,10.77
2018-08-09T09:43:59.661Z,13.33
2018-08-09T09:46:27.933Z,20.73
2018-08-09T09:48:56.302Z,13.87
2018-08-09T09:51:24.585Z,22.23
2018-08-09T09:53:52.812Z,10.60
2018-08-09T09:56:21.047Z,10.50
2018-08-09T09:58:49.465Z,12.50
2018-08-09T10:01:22.897Z,12.23
2018-08-09T10:03:51.138Z,10.60
2018-08-09T10:06:19.397Z,11.83
2018-08-09T10:08:47.750Z,13.83
2018-08-09T10:11:15.957Z,14.27
2018-08-09T10:13:44.169Z,13.97
2018-08-09T10:16:12.401Z,13.20
2018-08-09T10:18:40.358Z,14.57
2018-08-09T10:21:08.362Z,15.13
2018-08-09T10:23:36.449Z,15.37
2018-08-09T10:26:04.477Z,14.90
2018-08-09T10:28:32.489Z,17.03
2018-08-09T10:31:00.794Z,15.83
2018-08-09T10:33:29.069Z,20.80
2018-08-09T10:35:57.359Z,24.90
2018-08-09T10:38:25.576Z,17.03
2018-08-09T10:40:53.791Z,23.87
2018-08-09T10:43:22.067Z,17.77
2018-08-09T10:45:50.315Z,17.13
2018-08-09T10:48:18.546Z,17.63
2018-08-09T10:50:46.835Z,16.40
2018-08-09T10:53:15.172Z,14.70
2018-08-09T10:55:43.449Z,18.70
2018-08-09T10:58:11.638Z,16.32
2018-08-09T11:00:39.991Z,17.53
2018-08-09T11:03:08.187Z,14.73
2018-08-09T11:05:36.487Z,12.80
2018-08-09T11:08:04.830Z,15.27
2018-08-09T11:10:33.047Z,15.48
2018-08-09T11:13:01.092Z,14.05
2018-08-09T11:15:29.383Z,9.33
2018-08-09T11:17:57.323Z,9.68
2018-08-09T11:20:25.296Z,10.38
2018-08-09T11:22:53.310Z,9.43
2018-08-09T11:25:21.275Z,12.47
2018-08-09T11:27:49.247Z,9.95
2018-08-09T11:30:17.231Z,9.05
2018-08-09T11:32:45.463Z,9.35
2018-08-09T11:35:13.803Z,9.17
2018-08-09T11:37:41.832Z,10.90
2018-08-09T11:40:09.875Z,9.28
2018-08-09T11:42:37.843Z,10.93
2018-08-09T11:45:05.876Z,9.23
2018-08-09T11:47:33.837Z,15.65
2018-08-09T11:50:01.784Z,8.25
2018-08-09T11:52:29.739Z,14.38
2018-08-09T11:54:57.755Z,11.75
2018-08-09T11:57:25.700Z,9.15
2018-08-09T11:59:53.688Z,13.70
2018-08-09T12:02:21.640Z,6.55
2018-08-09T12:04:49.679Z,12.43
2018-08-09T12:07:17.707Z,10.10
2018-08-09T12:09:46.044Z,13.68
2018-08-09T12:12:14.267Z,18.37
2018-08-09T12:14:42.532Z,12.23
2018-08-09T12:17:10.756Z,12.67
2018-08-09T12:19:39.097Z,27.77
2018-08-09T12:22:07.376Z,14.00
2018-08-09T12:24:35.596Z,20.97
2018-08-09T12:27:03.913Z,14.95
2018-08-09T12:29:32.564Z,12.93
2018-08-09T12:32:02.581Z,25.65
2018-08-09T12:34:30.844Z,14.07
2018-08-09T12:36:58.888Z,14.87
2018-08-09T12:39:27.809Z,24.20
2018-08-09T12:41:56.344Z,10.84
2018-08-09T12:44:24.392Z,11.90
2018-08-09T12:46:52.680Z,14.75
2018-08-09T12:49:20.924Z,11.08
2018-08-09T12:51:49.356Z,16.10
2018-08-09T12:54:18.208Z,28.75
2018-08-09T12:56:46.580Z,11.10
2018-08-09T12:59:14.800Z,28.70
2018-08-09T13:01:43.064Z,22.10
2018-08-09T13:04:11.425Z,11.43
2018-08-09T13:06:39.685Z,13.30
2018-08-09T13:09:09.684Z,12.27
2018-08-09T13:11:37.969Z,12.60
2018-08-09T13:14:06.237Z,15.90
2018-08-09T13:16:34.469Z,14.07
2018-08-09T13:19:02.729Z,18.15
2018-08-09T13:21:30.969Z,19.35
2018-08-09T13:23:58.987Z,16.77
2018-08-09T13:26:26.929Z,15.18
2018-08-09T13:28:54.953Z,12.07
2018-08-09T13:31:22.928Z,19.45
2018-08-09T13:33:51.140Z,31.75
2018-08-09T13:36:19.407Z,25.43
2018-08-09T13:38:48.315Z,17.12
2018-08-09T13:41:16.566Z,18.10
2018-08-09T13:43:45.277Z,21.12
2018-08-09T13:46:13.541Z,17.90
2018-08-09T13:48:42.233Z,14.30
2018-08-09T13:51:10.470Z,13.68
2018-08-09T13:53:38.762Z,16.90
2018-08-09T13:56:07.005Z,17.12
2018-08-09T13:58:35.255Z,15.28
2018-08-09T14:01:03.506Z,16.48
2018-08-09T14:03:31.749Z,19.25
2018-08-09T14:06:00.026Z,15.90
2018-08-09T14:08:28.293Z,15.72
2018-08-09T14:10:58.015Z,16.50
2018-08-09T14:13:37.003Z,14.93
2018-08-09T14:16:05.318Z,15.07
2018-08-09T14:18:33.485Z,14.43
2018-08-09T14:21:01.459Z,18.50
2018-08-09T14:23:29.450Z,18.73
2018-08-09T14:25:57.461Z,29.67
2018-08-09T14:28:25.753Z,27.67
2018-08-09T14:30:53.746Z,26.20
2018-08-09T14:33:21.702Z,33.10
2018-08-09T14:35:49.738Z,25.83
2018-08-09T14:38:17.730Z,28.13
2018-08-09T14:40:46.026Z,27.03
2018-08-09T14:43:14.007Z,28.77
2018-08-09T14:45:41.990Z,29.93
2018-08-09T14:48:10.388Z,34.93
2018-08-09T14:50:38.358Z,31.13
2018-08-09T14:53:06.363Z,31.57
2018-08-09T14:55:34.323Z,29.37
2018-08-09T14:58:02.263Z,30.07
2018-08-09T15:00:30.356Z,30.53
2018-08-09T15:02:58.543Z,22.97
2018-08-09T15:05:26.496Z,16.77
2018-08-09T15:07:54.459Z,19.70
2018-08-09T15:10:22.463Z,18.47
2018-08-09T15:12:50.423Z,13.50
2018-08-09T15:15:18.419Z,12.93
2018-08-09T15:17:46.385Z,12.87
2018-08-09T15:20:14.596Z,10.60
2018-08-09T15:22:42.650Z,10.07
2018-08-09T15:25:11.196Z,11.70
2018-08-09T15:27:39.724Z,9.20
2018-08-09T15:30:12.489Z,7.03
2018-08-09T15:32:40.748Z,6.40
2018-08-09T15:35:08.748Z,8.63
2018-08-09T15:37:36.747Z,7.90
2018-08-09T15:40:05.256Z,6.33
2018-08-09T15:42:34.160Z,6.30
2018-08-09T15:45:02.264Z,6.60
2018-08-09T15:47:30.264Z,9.40
2018-08-09T15:49:58.219Z,8.27
2018-08-09T15:52:26.301Z,5.70
2018-08-09T15:54:54.415Z,7.67
2018-08-09T15:57:22.429Z,8.63
2018-08-09T15:59:51.582Z,6.70
2018-08-09T16:02:19.618Z,7.60
2018-08-09T16:04:47.617Z,8.43
2018-08-09T16:07:15.600Z,6.43
2018-08-09T16:09:43.636Z,7.03
2018-08-09T16:12:11.621Z,7.77
2018-08-09T16:14:39.617Z,5.90
2018-08-09T16:17:08.010Z,8.50
2018-08-09T16:19:36.037Z,6.17
2018-08-09T16:22:04.293Z,7.67
2018-08-09T16:24:32.301Z,8.00
2018-08-09T16:27:00.632Z,6.83
2018-08-09T16:29:28.956Z,5.67
2018-08-09T16:31:58.145Z,8.30
2018-08-09T16:34:26.343Z,8.10
2018-08-09T16:36:54.609Z,7.03
2018-08-09T16:39:22.941Z,6.57
2018-08-09T16:41:51.163Z,6.27
2018-08-09T16:44:19.189Z,8.43
2018-08-09T16:46:47.177Z,8.13
2018-08-09T16:49:15.165Z,8.67
2018-08-09T16:51:50.302Z,7.37
2018-08-09T16:54:18.541Z,9.30
2018-08-09T16:56:46.815Z,7.33
2018-08-09T16:59:15.081Z,6.20
2018-08-09T17:01:43.310Z,11.70
2018-08-09T17:04:11.922Z,5.93
2018-08-09T17:06:40.200Z,6.00
2018-08-09T17:09:13.137Z,6.17
2018-08-09T17:11:44.492Z,5.53
2018-08-09T17:14:14.096Z,6.53
2018-08-09T17:16:42.664Z,6.67
2018-08-09T17:19:11.016Z,7.87
2018-08-09T17:21:39.288Z,7.07
2018-08-09T17:24:08.632Z,6.63
2018-08-09T17:26:36.960Z,6.43
2018-08-09T17:29:06.101Z,6.57
2018-08-09T17:31:34.484Z,4.90
2018-08-09T17:34:02.848Z,6.47
2018-08-09T17:36:31.104Z,5.23
2018-08-09T17:38:59.380Z,6.23
2018-08-09T17:41:28.725Z,6.27
2018-08-09T17:43:57.725Z,6.40
2018-08-09T17:46:26.515Z,5.33
2018-08-09T17:48:54.804Z,4.50
2018-08-09T17:51:23.005Z,4.70
2018-08-09T17:53:51.225Z,8.77
2018-08-09T17:56:19.478Z,4.90
2018-08-09T17:58:47.745Z,8.50
2018-08-09T18:01:16.085Z,6.77
2018-08-09T18:03:44.365Z,5.80
2018-08-09T18:06:12.618Z,4.43
2018-08-09T18:08:40.870Z,7.87
2018-08-09T18:11:09.129Z,6.43
2018-08-09T18:13:37.359Z,5.33
2018-08-09T18:16:05.586Z,4.03
2018-08-09T18:18:34.057Z,6.50
2018-08-09T18:21:02.393Z,7.47
2018-08-09T18:23:30.689Z,4.30
2018-08-09T18:25:59.155Z,5.23
2018-08-09T18:28:27.497Z,4.70
2018-08-09T18:30:55.808Z,5.33
2018-08-09T18:33:24.041Z,4.90
2018-08-09T18:35:52.310Z,5.47
2018-08-09T18:38:20.662Z,4.67
2018-08-09T18:40:48.993Z,5.77
2018-08-09T18:43:17.210Z,4.97
2018-08-09T18:45:45.410Z,6.10
2018-08-09T18:48:13.685Z,5.70
2018-08-09T18:50:41.942Z,4.47
2018-08-09T18:53:10.126Z,5.23
2018-08-09T18:55:38.098Z,6.40
2018-08-09T18:58:06.157Z,3.03
2018-08-09T19:00:34.102Z,4.37
2018-08-09T19:03:02.091Z,2.97
2018-08-09T19:05:30.458Z,3.60
2018-08-09T19:07:59.174Z,2.97
2018-08-09T19:10:28.222Z,5.20
2018-08-09T19:12:56.222Z,3.20
2018-08-09T19:15:24.251Z,3.23
2018-08-09T19:17:52.369Z,4.27
2018-08-09T19:20:24.926Z,4.63
2018-08-09T19:22:53.491Z,5.50
2018-08-09T19:25:21.746Z,3.77
2018-08-09T19:27:50.069Z,4.00
2018-08-09T19:30:20.925Z,4.60
2018-08-09T19:32:49.218Z,4.40
2018-08-09T19:35:17.610Z,5.67
2018-08-09T19:37:45.610Z,5.37
2018-08-09T19:40:14.853Z,4.63
2018-08-09T19:42:42.930Z,4.50
2018-08-09T19:45:15.849Z,4.97
2018-08-09T19:47:43.843Z,5.37
2018-08-09T19:50:13.279Z,6.57
2018-08-09T19:52:41.291Z,4.60
2018-08-09T19:55:13.967Z,4.43
2018-08-09T19:57:43.334Z,4.63
2018-08-09T20:00:12.372Z,4.47
2018-08-09T20:02:40.343Z,6.90
2018-08-09T20:05:09.851Z,4.67
2018-08-09T20:07:38.567Z,5.77
2018-08-09T20:10:06.927Z,3.97
2018-08-09T20:12:35.172Z,4.10
2018-08-09T20:15:03.120Z,4.00
2018-08-09T20:17:31.676Z,4.17
2018-08-09T20:19:59.655Z,4.30
2018-08-09T20:22:27.936Z,6.00
2018-08-09T20:24:56.187Z,4.80
2018-08-09T20:27:24.431Z,4.70
2018-08-09T20:29:52.655Z,4.80
2018-08-09T20:32:20.969Z,4.90
2018-08-09T20:34:49.243Z,8.33
2018-08-09T20:37:17.472Z,4.70
2018-08-09T20:39:45.903Z,4.63
2018-08-09T20:42:14.324Z,3.90
2018-08-09T20:44:42.560Z,6.03
2018-08-09T20:47:10.845Z,4.20
2018-08-09T20:49:39.210Z,4.30
2018-08-09T20:52:07.556Z,4.22
2018-08-09T20:54:35.820Z,4.20
2018-08-09T20:57:04.077Z,5.10
2018-08-09T20:59:32.300Z,4.03
2018-08-09T21:02:00.559Z,5.27
2018-08-09T21:04:28.833Z,4.00
2018-08-09T21:06:57.096Z,4.27
2018-08-09T21:09:25.032Z,3.80
2018-08-09T21:11:53.089Z,3.87
2018-08-09T21:14:21.056Z,4.10
2018-08-09T21:16:49.076Z,3.77
2018-08-09T21:19:17.112Z,5.30
2018-08-09T21:21:45.221Z,4.27
2018-08-09T21:24:13.169Z,3.63
2018-08-09T21:26:41.297Z,3.60
2018-08-09T21:29:09.313Z,3.60
2018-08-09T21:31:37.357Z,4.40
2018-08-09T21:34:05.332Z,3.40
2018-08-09T21:36:33.267Z,3.10
2018-08-09T21:39:01.225Z,3.43
2018-08-09T21:41:29.209Z,3.10
2018-08-09T21:43:57.790Z,3.93
2018-08-09T21:46:27.892Z,3.10
2018-08-09T21:48:55.917Z,2.57
2018-08-09T21:51:23.882Z,3.03
2018-08-09T21:53:51.849Z,2.40
2018-08-09T21:56:20.337Z,4.43
2018-08-09T21:58:48.469Z,2.83
2018-08-09T22:01:16.457Z,4.28
2018-08-09T22:03:44.686Z,3.13
2018-08-09T22:06:18.198Z,3.10
2018-08-09T22:08:51.768Z,3.27
2018-08-09T22:11:25.098Z,2.60
2018-08-09T22:13:58.502Z,3.30
2018-08-09T22:16:31.891Z,3.23
2018-08-09T22:19:06.235Z,3.00
2018-08-09T22:21:39.590Z,4.80
2018-08-09T22:24:07.645Z,2.77
2018-08-09T22:26:35.590Z,2.70
2018-08-09T22:29:03.567Z,3.63
2018-08-09T22:31:31.886Z,2.43
2018-08-09T22:34:00.382Z,2.83
2018-08-09T22:36:28.334Z,2.57
2018-08-09T22:38:56.333Z,3.20
2018-08-09T22:41:24.330Z,7.47
2018-08-09T22:43:52.401Z,2.27
2018-08-09T22:46:20.410Z,2.57
2018-08-09T22:48:48.530Z,3.27
2018-08-09T22:51:16.510Z,3.23
2018-08-09T22:53:44.712Z,2.90
2018-08-09T22:56:13.022Z,2.90
2018-08-09T22:58:41.258Z,3.33
2018-08-09T23:01:09.474Z,3.45
2018-08-09T23:03:37.512Z,2.93
2018-08-09T23:06:05.658Z,3.57
2018-08-09T23:08:33.663Z,2.87
2018-08-09T23:11:01.670Z,2.67
2018-08-09T23:13:29.751Z,2.60
2018-08-09T23:15:57.975Z,2.53
2018-08-09T23:18:26.207Z,3.00
2018-08-09T23:20:54.551Z,3.00
2018-08-09T23:23:22.776Z,3.00
2018-08-09T23:25:50.987Z,3.87
2018-08-09T23:28:19.284Z,3.80
2018-08-09T23:30:47.539Z,4.47
2018-08-09T23:33:17.048Z,4.87
2018-08-09T23:35:45.260Z,4.90
2018-08-09T23:38:13.547Z,5.33
2018-08-09T23:40:41.731Z,4.83
2018-08-09T23:43:09.967Z,4.70
2018-08-09T23:45:38.284Z,5.07
2018-08-09T23:48:06.871Z,4.90
2018-08-09T23:50:35.124Z,5.67
2018-08-09T23:53:03.110Z,5.37
2018-08-09T23:55:31.224Z,4.70
2018-08-09T23:57:59.207Z,4.63
